sensor_id;sensor_type;location;lat;lon;timestamp;temperature;humidity
39079;DHT22;24829;49.208;12.080;2024-03-02T00:00:50;5.40;99.90
39079;DHT22;24829;49.208;12.080;2024-03-02T00:03:17;5.40;99.90
39079;DHT22;24829;49.208;12.080;2024-03-02T00:05:43;5.40;99.90
39079;DHT22;24829;49.208;12.080;2024-03-02T00:08:09;5.40;99.90
39079;DHT22;24829;49.208;12.080;2024-03-02T00:10:39;5.40;99.90
39079;DHT22;24829;49.208;12.080;2024-03-02T00:13:08;5.40;99.90
39079;DHT22;24829;49.208;12.080;2024-03-02T00:15:56;5.40;99.90
39079;DHT22;24829;49.208;12.080;2024-03-02T00:18:27;5.30;99.90
39079;DHT22;24829;49.208;12.080;2024-03-02T00:20:56;5.30;99.90
39079;DHT22;24829;49.208;12.080;2024-03-02T00:23:23;5.30;99.90
39079;DHT22;24829;49.208;12.080;2024-03-02T00:25:53;5.20;99.90
39079;DHT22;24829;49.208;12.080;2024-03-02T00:28:25;5.20;99.90
39079;DHT22;24829;49.208;12.080;2024-03-02T00:31:07;5.20;99.90
39079;DHT22;24829;49.208;12.080;2024-03-02T00:33:46;5.20;99.90
39079;DHT22;24829;49.208;12.080;2024-03-02T00:36:14;5.20;99.90
39079;DHT22;24829;49.208;12.080;2024-03-02T00:38:51;5.20;99.90
39079;DHT22;24829;49.208;12.080;2024-03-02T00:41:31;5.20;99.90
39079;DHT22;24829;49.208;12.080;2024-03-02T00:46:23;5.20;99.90
39079;DHT22;24829;49.208;12.080;2024-03-02T00:49:00;5.20;99.90
39079;DHT22;24829;49.208;12.080;2024-03-02T00:51:27;5.30;99.90
39079;DHT22;24829;49.208;12.080;2024-03-02T00:53:58;5.30;99.90
39079;DHT22;24829;49.208;12.080;2024-03-02T00:56:24;5.40;99.90
39079;DHT22;24829;49.208;12.080;2024-03-02T00:58:50;5.40;99.90
39079;DHT22;24829;49.208;12.080;2024-03-02T01:01:16;5.30;99.90
39079;DHT22;24829;49.208;12.080;2024-03-02T01:03:42;5.30;99.90
39079;DHT22;24829;49.208;12.080;2024-03-02T01:06:08;5.40;99.90
39079;DHT22;24829;49.208;12.080;2024-03-02T01:08:35;5.40;99.90
39079;DHT22;24829;49.208;12.080;2024-03-02T01:11:01;5.40;99.90
39079;DHT22;24829;49.208;12.080;2024-03-02T01:13:27;5.40;99.90
39079;DHT22;24829;49.208;12.080;2024-03-02T01:15:53;5.40;99.90
39079;DHT22;24829;49.208;12.080;2024-03-02T01:18:18;5.30;99.90
39079;DHT22;24829;49.208;12.080;2024-03-02T01:20:44;5.30;99.90
39079;DHT22;24829;49.208;12.080;2024-03-02T01:23:10;5.30;99.90
39079;DHT22;24829;49.208;12.080;2024-03-02T01:25:35;5.30;99.90
39079;DHT22;24829;49.208;12.080;2024-03-02T01:28:01;5.30;99.90
39079;DHT22;24829;49.208;12.080;2024-03-02T01:30:27;5.30;99.90
39079;DHT22;24829;49.208;12.080;2024-03-02T01:32:52;5.20;99.90
39079;DHT22;24829;49.208;12.080;2024-03-02T01:35:18;5.20;99.90
39079;DHT22;24829;49.208;12.080;2024-03-02T01:37:43;5.20;99.90
39079;DHT22;24829;49.208;12.080;2024-03-02T01:40:10;5.20;99.90
39079;DHT22;24829;49.208;12.080;2024-03-02T01:42:40;5.30;99.90
39079;DHT22;24829;49.208;12.080;2024-03-02T01:45:06;5.20;99.90
39079;DHT22;24829;49.208;12.080;2024-03-02T01:47:32;5.30;99.90
39079;DHT22;24829;49.208;12.080;2024-03-02T01:49:58;5.30;99.90
39079;DHT22;24829;49.208;12.080;2024-03-02T01:52:24;5.30;99.90
39079;DHT22;24829;49.208;12.080;2024-03-02T01:54:50;5.30;99.90
39079;DHT22;24829;49.208;12.080;2024-03-02T01:57:16;5.30;99.90
39079;DHT22;24829;49.208;12.080;2024-03-02T01:59:42;5.40;99.90
39079;DHT22;24829;49.208;12.080;2024-03-02T02:02:07;5.40;99.90
39079;DHT22;24829;49.208;12.080;2024-03-02T02:04:33;5.40;99.90
39079;DHT22;24829;49.208;12.080;2024-03-02T02:06:59;5.40;99.90
39079;DHT22;24829;49.208;12.080;2024-03-02T02:09:25;5.40;99.90
39079;DHT22;24829;49.208;12.080;2024-03-02T02:11:51;5.40;99.90
39079;DHT22;24829;49.208;12.080;2024-03-02T02:14:17;5.40;99.90
39079;DHT22;24829;49.208;12.080;2024-03-02T02:16:43;5.40;99.90
39079;DHT22;24829;49.208;12.080;2024-03-02T02:19:08;5.40;99.90
39079;DHT22;24829;49.208;12.080;2024-03-02T02:21:35;5.40;99.90
39079;DHT22;24829;49.208;12.080;2024-03-02T02:24:00;5.30;99.90
39079;DHT22;24829;49.208;12.080;2024-03-02T02:26:28;5.20;99.90
39079;DHT22;24829;49.208;12.080;2024-03-02T02:28:54;5.30;99.90
39079;DHT22;24829;49.208;12.080;2024-03-02T02:31:20;5.20;99.90
39079;DHT22;24829;49.208;12.080;2024-03-02T02:33:45;5.20;99.90
39079;DHT22;24829;49.208;12.080;2024-03-02T02:36:11;5.20;99.90
39079;DHT22;24829;49.208;12.080;2024-03-02T02:38:40;5.30;99.90
39079;DHT22;24829;49.208;12.080;2024-03-02T02:41:06;5.30;99.90
39079;DHT22;24829;49.208;12.080;2024-03-02T02:43:32;5.30;99.90
39079;DHT22;24829;49.208;12.080;2024-03-02T02:45:58;5.30;99.90
39079;DHT22;24829;49.208;12.080;2024-03-02T02:48:23;5.30;99.90
39079;DHT22;24829;49.208;12.080;2024-03-02T02:50:49;5.30;99.90
39079;DHT22;24829;49.208;12.080;2024-03-02T02:53:15;5.30;99.90
39079;DHT22;24829;49.208;12.080;2024-03-02T02:55:40;5.30;99.90
39079;DHT22;24829;49.208;12.080;2024-03-02T02:58:06;5.30;99.90
39079;DHT22;24829;49.208;12.080;2024-03-02T03:00:32;5.40;99.90
39079;DHT22;24829;49.208;12.080;2024-03-02T03:02:58;5.40;99.90
39079;DHT22;24829;49.208;12.080;2024-03-02T03:05:24;5.40;99.90
39079;DHT22;24829;49.208;12.080;2024-03-02T03:07:49;5.40;99.90
39079;DHT22;24829;49.208;12.080;2024-03-02T03:10:16;5.40;99.90
39079;DHT22;24829;49.208;12.080;2024-03-02T03:12:42;5.40;99.90
39079;DHT22;24829;49.208;12.080;2024-03-02T03:15:09;5.40;99.90
39079;DHT22;24829;49.208;12.080;2024-03-02T03:17:35;5.50;99.90
39079;DHT22;24829;49.208;12.080;2024-03-02T03:20:03;5.40;99.90
39079;DHT22;24829;49.208;12.080;2024-03-02T03:22:30;5.40;99.90
39079;DHT22;24829;49.208;12.080;2024-03-02T03:24:56;5.40;99.90
39079;DHT22;24829;49.208;12.080;2024-03-02T03:27:22;5.40;99.90
39079;DHT22;24829;49.208;12.080;2024-03-02T03:29:47;5.40;99.90
39079;DHT22;24829;49.208;12.080;2024-03-02T03:32:13;5.40;99.90
39079;DHT22;24829;49.208;12.080;2024-03-02T03:34:39;5.40;99.90
39079;DHT22;24829;49.208;12.080;2024-03-02T03:37:05;5.30;99.90
39079;DHT22;24829;49.208;12.080;2024-03-02T03:39:31;5.30;99.90
39079;DHT22;24829;49.208;12.080;2024-03-02T03:41:57;5.30;99.90
39079;DHT22;24829;49.208;12.080;2024-03-02T03:44:22;5.30;99.90
39079;DHT22;24829;49.208;12.080;2024-03-02T03:46:48;5.30;99.90
39079;DHT22;24829;49.208;12.080;2024-03-02T03:49:13;5.30;99.90
39079;DHT22;24829;49.208;12.080;2024-03-02T03:51:39;5.30;99.90
39079;DHT22;24829;49.208;12.080;2024-03-02T03:54:04;5.30;99.90
39079;DHT22;24829;49.208;12.080;2024-03-02T03:56:30;5.40;99.90
39079;DHT22;24829;49.208;12.080;2024-03-02T03:58:56;5.40;99.90
39079;DHT22;24829;49.208;12.080;2024-03-02T04:01:21;5.40;99.90
39079;DHT22;24829;49.208;12.080;2024-03-02T04:03:48;5.40;99.90
39079;DHT22;24829;49.208;12.080;2024-03-02T04:06:13;5.40;99.90
39079;DHT22;24829;49.208;12.080;2024-03-02T04:08:41;5.40;99.90
39079;DHT22;24829;49.208;12.080;2024-03-02T04:11:06;5.50;99.90
39079;DHT22;24829;49.208;12.080;2024-03-02T04:13:33;5.50;99.90
39079;DHT22;24829;49.208;12.080;2024-03-02T04:15:59;5.50;99.90
39079;DHT22;24829;49.208;12.080;2024-03-02T04:18:24;5.50;99.90
39079;DHT22;24829;49.208;12.080;2024-03-02T04:20:50;5.50;99.90
39079;DHT22;24829;49.208;12.080;2024-03-02T04:23:16;5.50;99.90
39079;DHT22;24829;49.208;12.080;2024-03-02T04:25:41;5.50;99.90
39079;DHT22;24829;49.208;12.080;2024-03-02T04:28:07;5.50;99.90
39079;DHT22;24829;49.208;12.080;2024-03-02T04:30:32;5.50;99.90
39079;DHT22;24829;49.208;12.080;2024-03-02T04:32:58;5.50;99.90
39079;DHT22;24829;49.208;12.080;2024-03-02T04:35:24;5.50;99.90
39079;DHT22;24829;49.208;12.080;2024-03-02T04:37:51;5.40;99.90
39079;DHT22;24829;49.208;12.080;2024-03-02T04:40:16;5.40;99.90
39079;DHT22;24829;49.208;12.080;2024-03-02T04:42:42;5.40;99.90
39079;DHT22;24829;49.208;12.080;2024-03-02T04:45:08;5.40;99.90
39079;DHT22;24829;49.208;12.080;2024-03-02T04:47:34;5.40;99.90
39079;DHT22;24829;49.208;12.080;2024-03-02T04:50:00;5.40;99.90
39079;DHT22;24829;49.208;12.080;2024-03-02T04:52:25;5.40;99.90
39079;DHT22;24829;49.208;12.080;2024-03-02T04:54:51;5.40;99.90
39079;DHT22;24829;49.208;12.080;2024-03-02T04:57:42;5.40;99.90
39079;DHT22;24829;49.208;12.080;2024-03-02T05:00:08;5.40;99.90
39079;DHT22;24829;49.208;12.080;2024-03-02T05:02:34;5.40;99.90
39079;DHT22;24829;49.208;12.080;2024-03-02T05:05:00;5.40;99.90
39079;DHT22;24829;49.208;12.080;2024-03-02T05:07:26;5.40;99.90
39079;DHT22;24829;49.208;12.080;2024-03-02T05:09:51;5.50;99.90
39079;DHT22;24829;49.208;12.080;2024-03-02T05:12:17;5.50;99.90
39079;DHT22;24829;49.208;12.080;2024-03-02T05:15:06;5.50;99.90
39079;DHT22;24829;49.208;12.080;2024-03-02T05:17:38;5.60;99.90
39079;DHT22;24829;49.208;12.080;2024-03-02T05:20:08;5.60;99.90
39079;DHT22;24829;49.208;12.080;2024-03-02T05:22:34;5.60;99.90
39079;DHT22;24829;49.208;12.080;2024-03-02T05:25:00;5.60;99.90
39079;DHT22;24829;49.208;12.080;2024-03-02T05:27:27;5.60;99.90
39079;DHT22;24829;49.208;12.080;2024-03-02T05:29:52;5.60;99.90
39079;DHT22;24829;49.208;12.080;2024-03-02T05:32:18;5.60;99.90
39079;DHT22;24829;49.208;12.080;2024-03-02T05:34:44;5.60;99.90
39079;DHT22;24829;49.208;12.080;2024-03-02T05:37:09;5.50;99.90
39079;DHT22;24829;49.208;12.080;2024-03-02T05:39:35;5.50;99.90
39079;DHT22;24829;49.208;12.080;2024-03-02T05:42:00;5.40;99.90
39079;DHT22;24829;49.208;12.080;2024-03-02T05:44:26;5.40;99.90
39079;DHT22;24829;49.208;12.080;2024-03-02T05:46:52;5.40;99.90
39079;DHT22;24829;49.208;12.080;2024-03-02T05:49:18;5.40;99.90
39079;DHT22;24829;49.208;12.080;2024-03-02T05:51:43;5.40;99.90
39079;DHT22;24829;49.208;12.080;2024-03-02T05:54:09;5.40;99.90
39079;DHT22;24829;49.208;12.080;2024-03-02T05:56:35;5.40;99.90
39079;DHT22;24829;49.208;12.080;2024-03-02T05:59:01;5.40;99.90
39079;DHT22;24829;49.208;12.080;2024-03-02T06:01:47;5.40;99.90
39079;DHT22;24829;49.208;12.080;2024-03-02T06:04:13;5.50;99.90
39079;DHT22;24829;49.208;12.080;2024-03-02T06:06:48;5.50;99.90
39079;DHT22;24829;49.208;12.080;2024-03-02T06:09:14;5.60;99.90
39079;DHT22;24829;49.208;12.080;2024-03-02T06:11:41;5.60;99.90
39079;DHT22;24829;49.208;12.080;2024-03-02T06:14:08;5.60;99.90
39079;DHT22;24829;49.208;12.080;2024-03-02T06:16:34;5.60;99.90
39079;DHT22;24829;49.208;12.080;2024-03-02T06:19:00;5.60;99.90
39079;DHT22;24829;49.208;12.080;2024-03-02T06:21:26;5.60;99.90
39079;DHT22;24829;49.208;12.080;2024-03-02T06:23:51;5.70;99.90
39079;DHT22;24829;49.208;12.080;2024-03-02T06:26:17;5.60;99.90
39079;DHT22;24829;49.208;12.080;2024-03-02T06:28:44;5.70;99.90
39079;DHT22;24829;49.208;12.080;2024-03-02T06:31:09;5.70;99.90
39079;DHT22;24829;49.208;12.080;2024-03-02T06:33:35;5.70;99.90
39079;DHT22;24829;49.208;12.080;2024-03-02T06:36:01;5.70;99.90
39079;DHT22;24829;49.208;12.080;2024-03-02T06:38:27;5.60;99.90
39079;DHT22;24829;49.208;12.080;2024-03-02T06:40:52;5.60;99.90
39079;DHT22;24829;49.208;12.080;2024-03-02T06:43:18;5.70;99.90
39079;DHT22;24829;49.208;12.080;2024-03-02T06:45:49;5.70;99.90
39079;DHT22;24829;49.208;12.080;2024-03-02T06:48:14;5.80;99.90
39079;DHT22;24829;49.208;12.080;2024-03-02T06:50:44;5.80;99.90
39079;DHT22;24829;49.208;12.080;2024-03-02T06:53:09;5.80;99.90
39079;DHT22;24829;49.208;12.080;2024-03-02T06:55:35;5.80;99.90
39079;DHT22;24829;49.208;12.080;2024-03-02T06:58:00;5.80;99.90
39079;DHT22;24829;49.208;12.080;2024-03-02T07:00:26;5.90;99.90
39079;DHT22;24829;49.208;12.080;2024-03-02T07:02:51;5.90;99.90
39079;DHT22;24829;49.208;12.080;2024-03-02T07:05:17;5.90;99.90
39079;DHT22;24829;49.208;12.080;2024-03-02T07:07:43;5.80;99.90
39079;DHT22;24829;49.208;12.080;2024-03-02T07:10:08;5.80;99.90
39079;DHT22;24829;49.208;12.080;2024-03-02T07:12:34;5.80;99.90
39079;DHT22;24829;49.208;12.080;2024-03-02T07:15:00;5.90;99.90
39079;DHT22;24829;49.208;12.080;2024-03-02T07:17:28;5.90;99.90
39079;DHT22;24829;49.208;12.080;2024-03-02T07:19:54;6.00;99.90
39079;DHT22;24829;49.208;12.080;2024-03-02T07:22:20;6.00;99.90
39079;DHT22;24829;49.208;12.080;2024-03-02T07:24:46;5.90;99.90
39079;DHT22;24829;49.208;12.080;2024-03-02T07:27:12;6.00;99.90
39079;DHT22;24829;49.208;12.080;2024-03-02T07:29:39;6.00;99.90
39079;DHT22;24829;49.208;12.080;2024-03-02T07:32:05;5.90;99.90
39079;DHT22;24829;49.208;12.080;2024-03-02T07:34:31;5.90;99.90
39079;DHT22;24829;49.208;12.080;2024-03-02T07:36:57;5.90;99.90
39079;DHT22;24829;49.208;12.080;2024-03-02T07:39:23;5.90;99.90
39079;DHT22;24829;49.208;12.080;2024-03-02T07:41:49;5.90;99.90
39079;DHT22;24829;49.208;12.080;2024-03-02T07:44:14;6.00;99.90
39079;DHT22;24829;49.208;12.080;2024-03-02T07:46:41;6.00;99.90
39079;DHT22;24829;49.208;12.080;2024-03-02T07:49:08;6.00;99.90
39079;DHT22;24829;49.208;12.080;2024-03-02T07:51:33;6.00;99.90
39079;DHT22;24829;49.208;12.080;2024-03-02T07:53:59;6.10;99.90
39079;DHT22;24829;49.208;12.080;2024-03-02T07:56:25;6.10;99.90
39079;DHT22;24829;49.208;12.080;2024-03-02T07:58:50;6.10;99.90
39079;DHT22;24829;49.208;12.080;2024-03-02T08:01:16;6.20;99.90
39079;DHT22;24829;49.208;12.080;2024-03-02T08:03:43;6.30;99.90
39079;DHT22;24829;49.208;12.080;2024-03-02T08:06:13;6.30;99.90
39079;DHT22;24829;49.208;12.080;2024-03-02T08:08:40;6.30;99.90
39079;DHT22;24829;49.208;12.080;2024-03-02T08:11:06;6.30;99.90
39079;DHT22;24829;49.208;12.080;2024-03-02T08:13:31;6.40;99.90
39079;DHT22;24829;49.208;12.080;2024-03-02T08:15:57;6.40;99.90
39079;DHT22;24829;49.208;12.080;2024-03-02T08:18:23;6.50;99.90
39079;DHT22;24829;49.208;12.080;2024-03-02T08:20:49;6.50;99.90
39079;DHT22;24829;49.208;12.080;2024-03-02T08:23:15;6.60;99.90
39079;DHT22;24829;49.208;12.080;2024-03-02T08:25:41;6.60;99.90
39079;DHT22;24829;49.208;12.080;2024-03-02T08:28:07;6.60;99.90
39079;DHT22;24829;49.208;12.080;2024-03-02T08:30:32;6.70;99.90
39079;DHT22;24829;49.208;12.080;2024-03-02T08:32:58;6.70;99.90
39079;DHT22;24829;49.208;12.080;2024-03-02T08:35:23;6.70;99.90
39079;DHT22;24829;49.208;12.080;2024-03-02T08:37:49;6.60;99.90
39079;DHT22;24829;49.208;12.080;2024-03-02T08:40:15;6.60;99.90
39079;DHT22;24829;49.208;12.080;2024-03-02T08:42:41;6.70;99.90
39079;DHT22;24829;49.208;12.080;2024-03-02T08:45:07;6.70;99.90
39079;DHT22;24829;49.208;12.080;2024-03-02T08:47:33;6.70;99.90
39079;DHT22;24829;49.208;12.080;2024-03-02T08:50:00;6.80;99.90
39079;DHT22;24829;49.208;12.080;2024-03-02T08:52:26;6.80;99.90
39079;DHT22;24829;49.208;12.080;2024-03-02T08:54:51;6.80;99.90
39079;DHT22;24829;49.208;12.080;2024-03-02T08:57:17;6.80;99.90
39079;DHT22;24829;49.208;12.080;2024-03-02T08:59:42;6.80;99.90
39079;DHT22;24829;49.208;12.080;2024-03-02T09:02:09;6.80;99.90
39079;DHT22;24829;49.208;12.080;2024-03-02T09:04:35;6.90;99.90
39079;DHT22;24829;49.208;12.080;2024-03-02T09:07:01;7.00;99.90
39079;DHT22;24829;49.208;12.080;2024-03-02T09:09:26;7.00;99.90
39079;DHT22;24829;49.208;12.080;2024-03-02T09:11:52;7.10;99.90
39079;DHT22;24829;49.208;12.080;2024-03-02T09:14:20;7.10;99.90
39079;DHT22;24829;49.208;12.080;2024-03-02T09:16:46;7.10;99.90
39079;DHT22;24829;49.208;12.080;2024-03-02T09:19:12;7.20;99.90
39079;DHT22;24829;49.208;12.080;2024-03-02T09:21:37;7.30;99.90
39079;DHT22;24829;49.208;12.080;2024-03-02T09:24:03;7.30;99.90
39079;DHT22;24829;49.208;12.080;2024-03-02T09:26:29;7.40;99.90
39079;DHT22;24829;49.208;12.080;2024-03-02T09:28:55;7.50;99.90
39079;DHT22;24829;49.208;12.080;2024-03-02T09:31:20;7.50;99.90
39079;DHT22;24829;49.208;12.080;2024-03-02T09:33:46;7.60;99.90
39079;DHT22;24829;49.208;12.080;2024-03-02T09:36:19;7.60;99.90
39079;DHT22;24829;49.208;12.080;2024-03-02T09:38:45;7.60;99.90
39079;DHT22;24829;49.208;12.080;2024-03-02T09:41:11;7.60;99.90
39079;DHT22;24829;49.208;12.080;2024-03-02T09:43:37;7.60;99.90
39079;DHT22;24829;49.208;12.080;2024-03-02T09:46:03;7.60;99.90
39079;DHT22;24829;49.208;12.080;2024-03-02T09:48:29;7.60;99.90
39079;DHT22;24829;49.208;12.080;2024-03-02T09:50:54;7.60;99.90
39079;DHT22;24829;49.208;12.080;2024-03-02T09:53:20;7.60;99.90
39079;DHT22;24829;49.208;12.080;2024-03-02T09:55:47;7.60;99.90
39079;DHT22;24829;49.208;12.080;2024-03-02T09:58:13;7.60;99.90
39079;DHT22;24829;49.208;12.080;2024-03-02T10:00:38;7.50;99.90
39079;DHT22;24829;49.208;12.080;2024-03-02T10:03:04;7.60;99.90
39079;DHT22;24829;49.208;12.080;2024-03-02T10:05:31;7.60;99.90
39079;DHT22;24829;49.208;12.080;2024-03-02T10:08:02;7.70;99.90
39079;DHT22;24829;49.208;12.080;2024-03-02T10:10:40;7.80;99.90
39079;DHT22;24829;49.208;12.080;2024-03-02T10:13:09;7.90;99.90
39079;DHT22;24829;49.208;12.080;2024-03-02T10:15:36;8.00;99.90
39079;DHT22;24829;49.208;12.080;2024-03-02T10:18:11;8.10;99.90
39079;DHT22;24829;49.208;12.080;2024-03-02T10:20:38;8.10;99.90
39079;DHT22;24829;49.208;12.080;2024-03-02T10:23:15;8.10;99.90
39079;DHT22;24829;49.208;12.080;2024-03-02T10:25:41;8.20;99.90
39079;DHT22;24829;49.208;12.080;2024-03-02T10:28:07;8.20;99.90
39079;DHT22;24829;49.208;12.080;2024-03-02T10:30:33;8.20;99.90
39079;DHT22;24829;49.208;12.080;2024-03-02T10:33:03;8.20;99.90
39079;DHT22;24829;49.208;12.080;2024-03-02T10:35:31;8.30;99.90
39079;DHT22;24829;49.208;12.080;2024-03-02T10:37:59;8.40;99.90
39079;DHT22;24829;49.208;12.080;2024-03-02T10:40:26;8.50;99.90
39079;DHT22;24829;49.208;12.080;2024-03-02T10:42:52;8.50;99.90
39079;DHT22;24829;49.208;12.080;2024-03-02T10:45:20;8.50;99.90
39079;DHT22;24829;49.208;12.080;2024-03-02T10:47:47;8.40;99.90
39079;DHT22;24829;49.208;12.080;2024-03-02T10:50:13;8.50;99.90
39079;DHT22;24829;49.208;12.080;2024-03-02T10:52:39;8.50;99.90
39079;DHT22;24829;49.208;12.080;2024-03-02T10:55:06;8.50;99.90
39079;DHT22;24829;49.208;12.080;2024-03-02T10:57:45;8.50;99.90
39079;DHT22;24829;49.208;12.080;2024-03-02T11:00:15;8.50;99.90
39079;DHT22;24829;49.208;12.080;2024-03-02T11:02:50;8.50;99.90
39079;DHT22;24829;49.208;12.080;2024-03-02T11:05:30;8.60;99.90
39079;DHT22;24829;49.208;12.080;2024-03-02T11:08:01;8.60;99.90
39079;DHT22;24829;49.208;12.080;2024-03-02T11:10:35;8.70;99.90
39079;DHT22;24829;49.208;12.080;2024-03-02T11:13:11;8.70;99.90
39079;DHT22;24829;49.208;12.080;2024-03-02T11:15:37;8.80;99.90
39079;DHT22;24829;49.208;12.080;2024-03-02T11:18:05;8.90;99.90
39079;DHT22;24829;49.208;12.080;2024-03-02T11:20:37;9.00;99.90
39079;DHT22;24829;49.208;12.080;2024-03-02T11:23:08;9.00;99.90
39079;DHT22;24829;49.208;12.080;2024-03-02T11:25:34;9.00;99.90
39079;DHT22;24829;49.208;12.080;2024-03-02T11:28:02;9.00;99.90
39079;DHT22;24829;49.208;12.080;2024-03-02T11:32:55;9.00;99.90
39079;DHT22;24829;49.208;12.080;2024-03-02T11:35:21;9.00;99.90
39079;DHT22;24829;49.208;12.080;2024-03-02T11:37:47;8.90;99.90
39079;DHT22;24829;49.208;12.080;2024-03-02T11:40:13;8.90;99.90
39079;DHT22;24829;49.208;12.080;2024-03-02T11:42:38;8.80;99.90
39079;DHT22;24829;49.208;12.080;2024-03-02T11:45:08;8.80;99.90
39079;DHT22;24829;49.208;12.080;2024-03-02T11:47:34;8.80;99.90
39079;DHT22;24829;49.208;12.080;2024-03-02T11:49:59;8.90;99.90
39079;DHT22;24829;49.208;12.080;2024-03-02T11:52:26;8.90;99.90
39079;DHT22;24829;49.208;12.080;2024-03-02T11:54:53;8.90;99.90
39079;DHT22;24829;49.208;12.080;2024-03-02T11:57:20;8.90;99.90
39079;DHT22;24829;49.208;12.080;2024-03-02T11:59:48;8.90;99.90
39079;DHT22;24829;49.208;12.080;2024-03-02T12:02:19;8.90;99.90
39079;DHT22;24829;49.208;12.080;2024-03-02T12:04:46;8.90;99.90
39079;DHT22;24829;49.208;12.080;2024-03-02T12:07:22;8.90;99.90
39079;DHT22;24829;49.208;12.080;2024-03-02T12:09:48;9.00;99.90
39079;DHT22;24829;49.208;12.080;2024-03-02T12:12:14;9.10;99.90
39079;DHT22;24829;49.208;12.080;2024-03-02T12:14:51;9.10;99.90
39079;DHT22;24829;49.208;12.080;2024-03-02T12:17:17;9.20;99.90
39079;DHT22;24829;49.208;12.080;2024-03-02T12:19:43;9.30;99.90
39079;DHT22;24829;49.208;12.080;2024-03-02T12:22:09;9.40;99.90
39079;DHT22;24829;49.208;12.080;2024-03-02T12:24:35;9.40;99.90
39079;DHT22;24829;49.208;12.080;2024-03-02T12:27:03;9.40;99.90
39079;DHT22;24829;49.208;12.080;2024-03-02T12:29:30;9.40;99.90
39079;DHT22;24829;49.208;12.080;2024-03-02T12:31:55;9.30;99.90
39079;DHT22;24829;49.208;12.080;2024-03-02T12:34:26;9.40;99.90
39079;DHT22;24829;49.208;12.080;2024-03-02T12:36:52;9.30;99.90
39079;DHT22;24829;49.208;12.080;2024-03-02T12:39:21;9.30;99.90
39079;DHT22;24829;49.208;12.080;2024-03-02T12:41:49;9.30;99.90
39079;DHT22;24829;49.208;12.080;2024-03-02T12:44:16;9.30;99.90
39079;DHT22;24829;49.208;12.080;2024-03-02T12:46:43;9.30;99.90
39079;DHT22;24829;49.208;12.080;2024-03-02T12:49:10;9.30;99.90
39079;DHT22;24829;49.208;12.080;2024-03-02T12:51:40;9.30;99.90
39079;DHT22;24829;49.208;12.080;2024-03-02T12:54:09;9.20;99.90
39079;DHT22;24829;49.208;12.080;2024-03-02T12:56:40;9.20;99.90
39079;DHT22;24829;49.208;12.080;2024-03-02T12:59:06;9.20;99.90
39079;DHT22;24829;49.208;12.080;2024-03-02T13:01:32;9.30;99.90
39079;DHT22;24829;49.208;12.080;2024-03-02T13:03:58;9.30;99.90
39079;DHT22;24829;49.208;12.080;2024-03-02T13:06:25;9.30;99.90
39079;DHT22;24829;49.208;12.080;2024-03-02T13:08:53;9.40;99.90
39079;DHT22;24829;49.208;12.080;2024-03-02T13:11:20;9.40;99.90
39079;DHT22;24829;49.208;12.080;2024-03-02T13:13:46;9.40;99.90
39079;DHT22;24829;49.208;12.080;2024-03-02T13:16:13;9.50;99.90
39079;DHT22;24829;49.208;12.080;2024-03-02T13:18:39;9.50;99.90
39079;DHT22;24829;49.208;12.080;2024-03-02T13:21:06;9.60;99.90
39079;DHT22;24829;49.208;12.080;2024-03-02T13:23:31;9.60;99.90
39079;DHT22;24829;49.208;12.080;2024-03-02T13:25:58;9.70;99.90
39079;DHT22;24829;49.208;12.080;2024-03-02T13:28:24;9.80;99.90
39079;DHT22;24829;49.208;12.080;2024-03-02T13:30:50;9.80;99.90
39079;DHT22;24829;49.208;12.080;2024-03-02T13:33:15;9.80;99.90
39079;DHT22;24829;49.208;12.080;2024-03-02T13:35:41;9.90;99.90
39079;DHT22;24829;49.208;12.080;2024-03-02T13:38:06;9.90;99.90
39079;DHT22;24829;49.208;12.080;2024-03-02T13:40:32;9.80;99.90
39079;DHT22;24829;49.208;12.080;2024-03-02T13:43:02;9.90;99.90
39079;DHT22;24829;49.208;12.080;2024-03-02T13:45:28;9.90;99.90
39079;DHT22;24829;49.208;12.080;2024-03-02T13:47:54;9.90;99.90
39079;DHT22;24829;49.208;12.080;2024-03-02T13:50:19;9.90;99.90
39079;DHT22;24829;49.208;12.080;2024-03-02T13:52:45;10.00;99.90
39079;DHT22;24829;49.208;12.080;2024-03-02T13:55:11;10.00;99.90
39079;DHT22;24829;49.208;12.080;2024-03-02T13:57:37;10.10;99.90
39079;DHT22;24829;49.208;12.080;2024-03-02T14:00:03;10.20;99.90
39079;DHT22;24829;49.208;12.080;2024-03-02T14:02:35;10.30;99.90
39079;DHT22;24829;49.208;12.080;2024-03-02T14:05:01;10.30;99.90
39079;DHT22;24829;49.208;12.080;2024-03-02T14:07:27;10.30;99.90
39079;DHT22;24829;49.208;12.080;2024-03-02T14:09:52;10.20;99.90
39079;DHT22;24829;49.208;12.080;2024-03-02T14:12:18;10.20;99.90
39079;DHT22;24829;49.208;12.080;2024-03-02T14:14:43;10.30;99.90
39079;DHT22;24829;49.208;12.080;2024-03-02T14:17:09;10.30;99.90
39079;DHT22;24829;49.208;12.080;2024-03-02T14:19:40;10.30;99.90
39079;DHT22;24829;49.208;12.080;2024-03-02T14:22:05;10.20;99.90
39079;DHT22;24829;49.208;12.080;2024-03-02T14:24:31;10.30;99.90
39079;DHT22;24829;49.208;12.080;2024-03-02T14:26:57;10.30;99.90
39079;DHT22;24829;49.208;12.080;2024-03-02T14:29:24;10.30;99.90
39079;DHT22;24829;49.208;12.080;2024-03-02T14:31:50;10.20;99.90
39079;DHT22;24829;49.208;12.080;2024-03-02T14:34:16;10.20;99.90
39079;DHT22;24829;49.208;12.080;2024-03-02T14:36:41;10.20;99.90
39079;DHT22;24829;49.208;12.080;2024-03-02T14:39:10;10.20;99.90
39079;DHT22;24829;49.208;12.080;2024-03-02T14:41:36;10.20;99.90
39079;DHT22;24829;49.208;12.080;2024-03-02T14:44:02;10.30;99.90
39079;DHT22;24829;49.208;12.080;2024-03-02T14:46:28;10.30;99.90
39079;DHT22;24829;49.208;12.080;2024-03-02T14:48:54;10.30;99.90
39079;DHT22;24829;49.208;12.080;2024-03-02T14:51:20;10.30;99.90
39079;DHT22;24829;49.208;12.080;2024-03-02T14:53:46;10.30;99.90
39079;DHT22;24829;49.208;12.080;2024-03-02T14:56:11;10.40;99.90
39079;DHT22;24829;49.208;12.080;2024-03-02T14:58:39;10.40;99.90
39079;DHT22;24829;49.208;12.080;2024-03-02T15:01:05;10.40;99.90
39079;DHT22;24829;49.208;12.080;2024-03-02T15:03:35;10.30;99.90
39079;DHT22;24829;49.208;12.080;2024-03-02T15:06:02;10.30;99.90
39079;DHT22;24829;49.208;12.080;2024-03-02T15:08:29;10.30;99.90
39079;DHT22;24829;49.208;12.080;2024-03-02T15:10:55;10.30;99.90
39079;DHT22;24829;49.208;12.080;2024-03-02T15:13:25;10.20;99.90
39079;DHT22;24829;49.208;12.080;2024-03-02T15:15:52;10.10;99.90
39079;DHT22;24829;49.208;12.080;2024-03-02T15:18:18;10.20;99.90
39079;DHT22;24829;49.208;12.080;2024-03-02T15:20:43;10.20;99.90
39079;DHT22;24829;49.208;12.080;2024-03-02T15:23:09;10.10;99.90
39079;DHT22;24829;49.208;12.080;2024-03-02T15:25:35;10.10;99.90
39079;DHT22;24829;49.208;12.080;2024-03-02T15:28:00;10.10;99.90
39079;DHT22;24829;49.208;12.080;2024-03-02T15:30:26;10.00;99.90
39079;DHT22;24829;49.208;12.080;2024-03-02T15:32:51;10.00;99.90